This is the latest recevied weather packets stored in our database for station/object OE6ACM-14. If no packets are shown the sender has not sent any weather packets the latest 10 day(s).
| Time | Temp. | Humidity | Pressure | Rain* | Wind** | Luminosity | Snow |
|---|---|---|---|---|---|---|---|
| 1777791696 | 23.33° C | 31% | 929.8 hPa | - | - | - | - |
| 1777791396 | 22.22° C | 31% | 929.8 hPa | - | - | - | - |
| 1777791096 | 21.67° C | 33% | 929.9 hPa | - | - | - | - |
| 1777790796 | 22.22° C | 32% | 929.9 hPa | - | - | - | - |
| 1777790496 | 21.11° C | 33% | 929.9 hPa | - | - | - | - |
| 1777790196 | 21.67° C | 33% | 929.9 hPa | - | - | - | - |
| 1777789896 | 22.22° C | 32% | 929.9 hPa | - | - | - | - |
| 1777789596 | 23.89° C | 31% | 929.9 hPa | - | - | - | - |
| 1777789296 | 22.22° C | 33% | 929.9 hPa | - | - | - | - |
| 1777788996 | 21.11° C | 36% | 930 hPa | - | - | - | - |
| 1777788696 | 20.56° C | 39% | 930 hPa | - | - | - | - |
| 1777788396 | 18.89° C | 42% | 930.1 hPa | - | - | - | - |
| 1777788096 | 16.11° C | 50% | 930.2 hPa | - | - | - | - |
| 1777787796 | 11.11° C | 62% | 930.4 hPa | - | - | - | - |
| 1777787496 | 7.22° C | 66% | 930.5 hPa | - | - | - | - |
| 1777787196 | 6.67° C | 68% | 930.5 hPa | - | - | - | - |
| 1777786896 | 6.11° C | 69% | 930.5 hPa | - | - | - | - |
| 1777786596 | 5° C | 70% | 930.6 hPa | - | - | - | - |
| 1777786296 | 3.89° C | 69% | 930.7 hPa | - | - | - | - |
| 1777785996 | 4.44° C | 67% | 930.6 hPa | - | - | - | - |
| 1777785696 | 5.56° C | 69% | 930.6 hPa | - | - | - | - |
| 1777785396 | 5.56° C | 70% | 930.6 hPa | - | - | - | - |
| 1777785096 | 5° C | 70% | 930.7 hPa | - | - | - | - |
| 1777784796 | 4.44° C | 70% | 930.7 hPa | - | - | - | - |
| 1777784496 | 4.44° C | 69% | 930.7 hPa | - | - | - | - |
* Rain since midnight (hover to see other rain measurements)
** Current wind speed in m/s (hover to see current wind gust speed)